Time;durP1;ratioP1;P1;durP2;ratioP2;P2;SDS_P1;SDS_P2;PMS_P1;PMS_P2;Temp;Humidity;BMP_temperature;BMP_pressure;BME280_temperature;BME280_humidity;BME280_pressure;Samples;Min_cycle;Max_cycle;Signal;HPM_P1;HPM_P2
2023/06/21 00:02:14;;;;;;;12.70;10.00;;;;;;;20.29;85.16;100399.59;1405508;88;21347;-80
2023/06/21 00:04:40;;;;;;;11.33;9.70;;;;;;;20.23;85.79;100393.73;1411705;88;22413;-79
2023/06/21 00:07:07;;;;;;;10.90;9.53;;;;;;;20.16;86.06;100394.25;1405784;88;22220;-79
2023/06/21 00:09:33;;;;;;;14.28;9.75;;;;;;;20.12;86.02;100390.34;1405096;88;21569;-79
2023/06/21 00:11:59;;;;;;;16.25;10.80;;;;;;;20.09;85.76;100393.45;1406975;88;21319;-80
2023/06/21 00:14:25;;;;;;;11.93;10.78;;;;;;;20.04;86.04;100392.73;1405860;88;22250;-80
2023/06/21 00:16:52;;;;;;;12.40;10.82;;;;;;;19.98;86.09;100394.92;1405641;88;21356;-80
2023/06/21 00:19:18;;;;;;;11.03;9.90;;;;;;;19.93;86.16;100392.55;1405942;88;21325;-78
2023/06/21 00:21:44;;;;;;;15.43;11.05;;;;;;;19.89;86.73;100398.05;1405507;88;22242;-79
2023/06/21 00:24:11;;;;;;;14.80;9.20;;;;;;;19.82;88.41;100393.52;1405558;88;21317;-78
2023/06/21 00:26:37;;;;;;;10.63;9.60;;;;;;;19.81;89.03;100385.66;1411514;88;22228;-79
2023/06/21 00:29:03;;;;;;;12.98;9.00;;;;;;;19.78;89.34;100386.90;1388160;89;21414;-78
2023/06/21 00:31:30;;;;;;;13.15;10.45;;;;;;;19.78;90.87;100384.22;1406203;88;21496;-79
2023/06/21 00:33:56;;;;;;;14.50;10.10;;;;;;;19.75;90.82;100381.12;1404820;88;22155;-80
2023/06/21 00:36:22;;;;;;;16.93;9.80;;;;;;;19.70;91.26;100388.98;1405830;88;21399;-80
2023/06/21 00:38:48;;;;;;;15.03;10.55;;;;;;;19.64;92.94;100387.09;1405747;88;21492;-80
2023/06/21 00:41:15;;;;;;;11.22;9.35;;;;;;;19.58;93.07;100387.41;1459218;89;22228;-77
2023/06/21 00:43:41;;;;;;;12.68;10.45;;;;;;;19.53;93.61;100390.70;1411850;88;21325;-77
2023/06/21 00:46:07;;;;;;;18.97;9.63;;;;;;;19.51;94.63;100401.36;1567870;88;21382;-77
2023/06/21 00:48:33;;;;;;;12.20;9.57;;;;;;;19.49;95.26;100396.19;1405324;88;21415;-77
2023/06/21 00:51:00;;;;;;;11.80;9.28;;;;;;;19.49;95.21;100401.56;1405570;88;21348;-77
2023/06/21 00:53:28;;;;;;;14.93;10.60;;;;;;;19.47;95.13;100402.79;1411761;88;21356;-77
2023/06/21 00:55:58;;;;;;;11.40;10.20;;;;;;;19.44;94.86;100400.52;1568020;88;21281;-78
2023/06/21 00:58:24;;;;;;;12.33;10.53;;;;;;;19.45;94.57;100408.88;1404915;88;22206;-77
2023/06/21 01:00:51;;;;;;;11.17;10.10;;;;;;;19.37;94.84;100404.03;1405430;88;21377;-77
2023/06/21 01:03:20;;;;;;;14.00;11.00;;;;;;;19.33;95.01;100404.15;1411720;88;21436;-76
2023/06/21 01:06:01;;;;;;;11.88;10.58;;;;;;;19.30;95.12;100403.19;1525786;88;22229;-76
2023/06/21 01:09:01;;;;;;;11.23;9.53;;;;;;;19.24;97.73;100404.02;1563595;88;21334;-76
2023/06/21 01:11:42;;;;;;;15.43;12.20;;;;;;;19.15;97.64;100404.73;1410566;88;21334;-75
2023/06/21 01:14:26;;;;;;;10.93;9.10;;;;;;;19.11;97.77;100408.86;1433042;88;22236;-76
2023/06/21 01:16:54;;;;;;;12.47;10.03;;;;;;;19.08;98.29;100407.11;1398234;88;21393;-75
2023/06/21 01:19:47;;;;;;;14.03;10.87;;;;;;;19.02;100.00;100417.28;1537826;88;21378;-76
2023/06/21 01:22:24;;;;;;;12.00;10.10;;;;;;;18.94;100.00;100417.80;1403523;88;21377;-76
2023/06/21 01:25:12;;;;;;;15.97;10.83;;;;;;;18.92;99.40;100422.52;1563422;88;21378;-76
2023/06/21 01:27:58;;;;;;;16.70;10.00;;;;;;;18.84;100.00;100428.06;1397630;88;21334;-76
2023/06/21 01:30:28;;;;;;;10.90;9.17;;;;;;;18.77;100.00;100428.58;1558197;88;21303;-77
2023/06/21 01:32:56;;;;;;;12.78;9.78;;;;;;;18.72;100.00;100430.48;1540544;88;21333;-76
2023/06/21 01:35:24;;;;;;;10.97;9.90;;;;;;;18.70;100.00;100443.28;1400270;88;21422;-77
2023/06/21 01:37:51;;;;;;;11.67;9.93;;;;;;;18.69;100.00;100437.58;1400339;88;22177;-77
2023/06/21 01:40:17;;;;;;;14.57;9.67;;;;;;;18.69;100.00;100433.56;1407535;88;21355;-76
2023/06/21 01:42:44;;;;;;;13.47;8.93;;;;;;;18.69;100.00;100432.22;1401701;88;21495;-76
2023/06/21 01:45:11;;;;;;;16.50;10.67;;;;;;;18.70;100.00;100430.36;1401869;88;21341;-77
2023/06/21 01:47:39;;;;;;;11.10;9.93;;;;;;;18.69;100.00;100428.72;1401007;88;22257;-76
2023/06/21 01:50:11;;;;;;;15.43;10.83;;;;;;;18.65;100.00;100435.00;1405190;88;21311;-75
2023/06/21 01:52:37;;;;;;;13.32;10.30;;;;;;;18.61;100.00;100435.59;1538772;88;21511;-75
2023/06/21 01:55:05;;;;;;;12.07;10.33;;;;;;;18.62;100.00;100438.60;1400555;88;21422;-76
2023/06/21 01:57:36;;;;;;;10.70;9.60;;;;;;;18.62;100.00;100435.92;1399252;88;21502;-76
2023/06/21 02:00:18;;;;;;;;;;;;;;;18.63;100.00;100430.86;1405687;88;21553;-75
2023/06/21 02:02:52;;;;;;;10.10;9.10;;;;;;;18.61;100.00;100433.73;1563447;88;20943;-75
2023/06/21 02:05:20;;;;;;;13.63;9.53;;;;;;;18.60;100.00;100427.24;1498939;88;21385;-75
2023/06/21 02:07:48;;;;;;;13.40;9.80;;;;;;;18.59;100.00;100430.97;1401123;88;21620;-75
2023/06/21 02:10:15;;;;;;;10.93;9.93;;;;;;;18.62;100.00;100435.92;1381097;89;21341;-75
2023/06/21 02:12:45;;;;;;;13.70;10.77;;;;;;;18.61;100.00;100427.03;1401246;88;21518;-77
2023/06/21 02:15:11;;;;;;;10.20;9.17;;;;;;;18.61;100.00;100434.25;1539266;88;22140;-77
2023/06/21 02:17:38;;;;;;;18.87;9.63;;;;;;;18.62;100.00;100427.88;1408261;88;21503;-76
2023/06/21 02:20:11;;;;;;;19.10;11.27;;;;;;;18.60;100.00;100428.59;1563411;88;21392;-77
2023/06/21 02:22:34;;;;;;;12.50;10.35;;;;;;;18.61;100.00;100424.87;1560006;88;21592;-75
2023/06/21 02:25:00;;;;;;;11.37;10.10;;;;;;;18.62;100.00;100422.00;1401884;88;21445;-77
2023/06/21 02:27:27;;;;;;;14.50;9.43;;;;;;;18.61;100.00;100418.16;1407532;88;21548;-76
2023/06/21 02:29:53;;;;;;;14.53;9.90;;;;;;;18.63;100.00;100417.46;1401770;88;21326;-76
2023/06/21 02:32:19;;;;;;;14.13;11.17;;;;;;;18.64;100.00;100416.42;1402202;88;21303;-76
2023/06/21 02:34:45;;;;;;;15.70;11.00;;;;;;;18.63;100.00;100418.80;1402582;88;21429;-76
2023/06/21 02:37:11;;;;;;;17.53;12.03;;;;;;;18.61;100.00;100424.87;1408226;88;22355;-76
2023/06/21 02:39:38;;;;;;;11.07;9.60;;;;;;;18.58;100.00;100423.41;1382887;89;21303;-76
2023/06/21 02:42:05;;;;;;;15.00;10.80;;;;;;;18.56;100.00;100428.16;1401340;88;21562;-76
2023/06/21 02:44:31;;;;;;;12.23;10.23;;;;;;;18.56;100.00;100431.33;1401862;88;21341;-77
2023/06/21 02:46:58;;;;;;;11.33;10.13;;;;;;;18.56;100.00;100438.03;1402391;88;22369;-76
2023/06/21 02:49:24;;;;;;;12.10;9.63;;;;;;;18.55;100.00;100440.41;1401033;88;21348;-76
2023/06/21 02:51:51;;;;;;;10.97;9.60;;;;;;;18.50;100.00;100443.70;1402327;88;21503;-76
2023/06/21 02:54:17;;;;;;;15.13;10.90;;;;;;;18.45;100.00;100445.62;1401766;88;22309;-76
2023/06/21 02:56:44;;;;;;;11.90;10.63;;;;;;;18.40;100.00;100444.05;1401844;88;21356;-77
2023/06/21 02:59:11;;;;;;;13.13;11.83;;;;;;;18.43;100.00;100442.83;1401713;88;21569;-77
2023/06/21 03:01:37;;;;;;;13.00;11.67;;;;;;;18.45;100.00;100440.79;1461164;88;21422;-77
2023/06/21 03:04:04;;;;;;;12.70;10.23;;;;;;;18.51;100.00;100443.19;1407795;88;21422;-76
2023/06/21 03:06:33;;;;;;;11.53;9.73;;;;;;;18.58;100.00;100453.41;1446325;88;21700;-77
2023/06/21 03:08:59;;;;;;;14.20;10.77;;;;;;;18.63;100.00;100457.66;1544872;88;21325;-76
2023/06/21 03:11:25;;;;;;;11.23;10.17;;;;;;;18.68;100.00;100459.24;1405166;88;21487;-76
2023/06/21 03:13:51;;;;;;;11.40;9.97;;;;;;;18.71;100.00;100456.98;1393345;89;22198;-76
2023/06/21 03:16:17;;;;;;;12.17;10.43;;;;;;;18.79;100.00;100460.53;1405946;88;21468;-76
2023/06/21 03:18:43;;;;;;;17.63;11.10;;;;;;;18.82;100.00;100462.32;1405473;88;21303;-77
2023/06/21 03:21:10;;;;;;;16.73;11.80;;;;;;;18.84;100.00;100458.91;1405476;88;21540;-75
2023/06/21 03:23:36;;;;;;;15.30;11.30;;;;;;;18.87;100.00;100451.83;1411218;88;22213;-76
2023/06/21 03:26:03;;;;;;;20.73;12.03;;;;;;;18.91;100.00;100453.06;1405556;88;22331;-75
2023/06/21 03:28:29;;;;;;;22.97;11.13;;;;;;;18.94;100.00;100455.34;1405831;88;21355;-76
2023/06/21 03:30:57;;;;;;;14.03;11.13;;;;;;;18.98;100.00;100453.08;1406034;88;21318;-76
2023/06/21 03:33:24;;;;;;;13.00;10.83;;;;;;;19.04;100.00;100458.97;1409819;88;21406;-76
2023/06/21 03:35:51;;;;;;;16.20;10.53;;;;;;;19.07;100.00;100455.05;1405361;88;21544;-77
2023/06/21 03:38:20;;;;;;;14.00;10.48;;;;;;;19.05;100.00;100459.30;1404766;88;21489;-76
2023/06/21 03:40:46;;;;;;;13.33;12.03;;;;;;;19.11;100.00;100450.95;1402019;88;21458;-75
2023/06/21 03:43:13;;;;;;;20.60;12.47;;;;;;;19.12;100.00;100449.91;1411848;88;22309;-75
2023/06/21 03:45:39;;;;;;;12.03;10.70;;;;;;;19.13;100.00;100452.90;1405165;88;21422;-75
2023/06/21 03:48:06;;;;;;;13.17;10.87;;;;;;;19.17;100.00;100448.80;1544002;88;21511;-75
2023/06/21 03:50:32;;;;;;;14.53;10.32;;;;;;;19.23;100.00;100456.03;1405995;88;21363;-74
2023/06/21 03:52:59;;;;;;;14.45;10.53;;;;;;;19.30;100.00;100458.20;1404692;88;21510;-76
2023/06/21 03:55:26;;;;;;;13.35;10.88;;;;;;;19.36;100.00;100458.75;1404602;88;22177;-75
2023/06/21 03:57:52;;;;;;;15.15;10.82;;;;;;;19.44;100.00;100463.07;1405362;88;21502;-75
2023/06/21 04:00:19;;;;;;;14.40;12.18;;;;;;;19.49;100.00;100460.61;1411379;88;21340;-76
2023/06/21 04:02:45;;;;;;;17.02;12.63;;;;;;;19.53;100.00;100461.02;1561873;88;22228;-76
2023/06/21 04:05:11;;;;;;;15.13;10.80;;;;;;;19.58;100.00;100463.39;1410898;88;21503;-77
2023/06/21 04:07:40;;;;;;;16.67;10.43;;;;;;;19.64;100.00;100468.45;1563449;88;21289;-76
2023/06/21 04:10:12;;;;;;;17.60;10.58;;;;;;;19.69;100.00;100471.39;1404430;88;21539;-77
2023/06/21 04:12:38;;;;;;;15.18;12.30;;;;;;;19.73;100.00;100487.38;1563435;88;21392;-77
2023/06/21 04:15:05;;;;;;;13.38;11.68;;;;;;;19.81;100.00;100485.02;1383387;89;21348;-77
2023/06/21 04:17:32;;;;;;;13.70;12.33;;;;;;;19.90;100.00;100487.80;1400650;88;21664;-79
2023/06/21 04:19:58;;;;;;;12.78;9.98;;;;;;;19.98;100.00;100491.63;1408061;88;21444;-78
2023/06/21 04:22:25;;;;;;;14.80;11.63;;;;;;;20.06;100.00;100487.91;1402020;88;21354;-78
2023/06/21 04:24:51;;;;;;;15.20;11.38;;;;;;;20.14;99.49;100485.02;1402372;88;21444;-76
2023/06/21 04:27:18;;;;;;;15.32;11.48;;;;;;;20.21;99.00;100488.50;1401464;88;21386;-76
2023/06/21 04:29:46;;;;;;;16.80;10.70;;;;;;;20.35;98.64;100490.64;1408000;88;21443;-76
2023/06/21 04:32:12;;;;;;;17.98;12.33;;;;;;;20.47;97.90;100488.95;1400102;88;22265;-76
2023/06/21 04:34:38;;;;;;;17.95;13.72;;;;;;;20.59;97.41;100493.71;1383343;89;21429;-76
2023/06/21 04:37:08;;;;;;;17.87;13.20;;;;;;;20.70;96.90;100489.84;1401784;88;21348;-76
2023/06/21 04:39:34;;;;;;;15.73;12.53;;;;;;;20.88;96.57;100486.45;1404580;88;21519;-77
2023/06/21 04:42:01;;;;;;;16.62;13.15;;;;;;;21.01;95.83;100485.58;1401553;88;21539;-76
2023/06/21 04:44:28;;;;;;;13.50;12.10;;;;;;;21.11;95.24;100483.77;1401066;88;21445;-76
2023/06/21 04:46:55;;;;;;;13.20;11.73;;;;;;;21.15;94.56;100487.16;1401655;88;21594;-77
2023/06/21 04:49:25;;;;;;;14.95;11.70;;;;;;;21.28;94.32;100488.12;1406653;88;21385;-77
2023/06/21 04:51:57;;;;;;;15.83;11.10;;;;;;;21.34;94.15;100485.38;1563161;88;21326;-76
2023/06/21 04:54:22;;;;;;;18.45;11.73;;;;;;;21.40;94.14;100481.02;1563084;88;22465;-80
2023/06/21 04:56:51;;;;;;;17.23;12.58;;;;;;;21.50;93.79;100486.77;1401403;88;21326;-80
2023/06/21 04:59:17;;;;;;;18.42;12.93;;;;;;;21.62;93.69;100487.70;1405884;88;22207;-80
2023/06/21 05:01:44;;;;;;;13.80;12.35;;;;;;;21.77;93.41;100481.17;1401452;88;21490;-79
2023/06/21 05:04:11;;;;;;;14.68;12.15;;;;;;;21.88;93.01;100480.45;1401298;88;21501;-80
2023/06/21 05:06:37;;;;;;;19.90;14.53;;;;;;;21.93;92.15;100468.50;1393117;89;21369;-80
2023/06/21 05:09:04;;;;;;;13.22;11.93;;;;;;;21.93;92.15;100468.50;1413055;87;21504;-80
2023/06/21 05:11:30;;;;;;;16.87;12.05;;;;;;;22.07;91.17;100482.16;1407987;87;22299;-79
2023/06/21 05:13:56;;;;;;;13.90;12.55;;;;;;;22.17;91.18;100487.55;1407538;87;21326;-80
2023/06/21 05:16:22;;;;;;;14.55;11.70;;;;;;;22.29;91.09;100484.44;1544839;87;21444;-79
2023/06/21 05:18:49;;;;;;;19.17;12.98;;;;;;;22.45;90.95;100486.56;1413442;87;21341;-80
2023/06/21 05:21:15;;;;;;;16.32;11.75;;;;;;;22.59;89.91;100480.50;1407584;87;21385;-80
2023/06/21 05:23:41;;;;;;;17.32;13.48;;;;;;;22.78;89.10;100477.77;1407469;87;22175;-80
2023/06/21 05:26:07;;;;;;;20.70;14.43;;;;;;;22.97;88.45;100477.55;1407739;87;21470;-80
2023/06/21 05:28:34;;;;;;;21.35;12.98;;;;;;;23.19;88.00;100486.52;1397049;89;21385;-79
2023/06/21 05:31:00;;;;;;;23.32;14.78;;;;;;;23.33;86.86;100479.87;1407820;87;21311;-82
2023/06/21 05:33:26;;;;;;;22.87;12.35;;;;;;;23.45;86.23;100478.55;1390839;89;21502;-79
2023/06/21 05:35:52;;;;;;;15.28;12.40;;;;;;;23.56;85.64;100482.30;1408238;87;21310;-79
2023/06/21 05:38:19;;;;;;;16.87;13.65;;;;;;;23.65;84.45;100484.98;1414163;87;21360;-80
2023/06/21 05:40:45;;;;;;;13.35;11.05;;;;;;;23.70;84.10;100482.92;1407410;87;22257;-80
2023/06/21 05:43:11;;;;;;;13.78;11.12;;;;;;;23.76;83.46;100482.83;1407475;87;21554;-80
2023/06/21 05:45:40;;;;;;;12.63;11.20;;;;;;;23.83;82.84;100485.45;1408250;87;21357;-79
2023/06/21 05:48:06;;;;;;;15.83;11.35;;;;;;;23.93;82.31;100490.27;1410822;87;22308;-79
2023/06/21 05:50:33;;;;;;;13.08;11.73;;;;;;;23.99;81.89;100496.08;1391430;89;21392;-80
2023/06/21 05:52:59;;;;;;;14.43;9.33;;;;;;;24.04;81.23;100497.02;1565613;87;21377;-82
2023/06/21 05:55:26;;;;;;;12.80;10.00;;;;;;;24.10;79.94;100497.97;1407848;87;21495;-79
2023/06/21 05:57:52;;;;;;;13.18;10.25;;;;;;;24.17;78.68;100500.03;1416516;87;22228;-78
2023/06/21 06:00:19;;;;;;;13.08;10.53;;;;;;;24.38;78.57;100504.55;1407680;87;22206;-78
2023/06/21 06:02:45;;;;;;;15.85;11.25;;;;;;;24.60;78.57;100508.31;1567933;87;21332;-78
2023/06/21 06:05:12;;;;;;;13.85;10.00;;;;;;;24.80;77.15;100509.78;1407344;87;22184;-82
2023/06/21 06:07:38;;;;;;;11.38;10.35;;;;;;;24.89;76.23;100505.66;1558010;87;21554;-81
2023/06/21 06:10:05;;;;;;;13.53;11.05;;;;;;;25.02;76.50;100508.06;1386936;89;21406;-81
2023/06/21 06:12:32;;;;;;;11.18;9.98;;;;;;;25.16;75.96;100503.22;1404788;88;21429;-81
2023/06/21 06:14:58;;;;;;;21.37;10.70;;;;;;;25.23;75.22;100501.70;1405817;88;21495;-81
2023/06/21 06:17:24;;;;;;;14.05;11.08;;;;;;;25.21;74.78;100514.97;1411708;88;21451;-81
2023/06/21 06:19:51;;;;;;;13.90;10.55;;;;;;;25.29;74.95;100514.27;1405663;88;21311;-81
2023/06/21 06:22:17;;;;;;;11.48;10.28;;;;;;;25.36;73.69;100509.55;1406520;88;21547;-81
2023/06/21 06:24:45;;;;;;;16.37;9.33;;;;;;;25.43;72.37;100510.20;1405245;88;22214;-82
2023/06/21 06:27:11;;;;;;;16.02;10.03;;;;;;;25.50;72.31;100508.17;1410138;88;21303;-82
2023/06/21 06:29:38;;;;;;;17.12;9.95;;;;;;;25.60;72.33;100503.45;1405550;88;21400;-83
2023/06/21 06:32:04;;;;;;;11.95;9.78;;;;;;;25.69;72.15;100498.44;1405688;88;22287;-82
2023/06/21 06:34:30;;;;;;;9.48;8.58;;;;;;;25.77;71.62;100498.04;1388033;89;21477;-83
2023/06/21 06:36:56;;;;;;;14.40;9.18;;;;;;;25.87;70.71;100498.25;1394248;89;21444;-82
2023/06/21 06:39:23;;;;;;;9.75;7.87;;;;;;;25.90;69.85;100499.64;1401454;88;22476;-82
2023/06/21 06:41:49;;;;;;;19.00;9.38;;;;;;;25.93;69.79;100501.32;1405956;88;21384;-83
2023/06/21 06:44:15;;;;;;;14.50;9.03;;;;;;;26.00;68.20;100502.50;1373044;90;21310;-83
2023/06/21 06:46:41;;;;;;;12.28;8.08;;;;;;;26.11;68.29;100499.69;1412040;88;21444;-82
2023/06/21 06:49:08;;;;;;;13.05;8.30;;;;;;;26.22;67.71;100498.50;1567876;88;22265;-80
2023/06/21 06:51:34;;;;;;;11.10;7.90;;;;;;;26.37;67.97;100504.13;1405646;88;21333;-83
2023/06/21 06:54:00;;;;;;;11.85;7.60;;;;;;;26.51;66.60;100508.69;1388647;89;21312;-82
2023/06/21 06:56:26;;;;;;;10.08;7.17;;;;;;;26.68;66.81;100501.85;1411552;88;21501;-81
2023/06/21 06:58:52;;;;;;;12.78;8.45;;;;;;;26.85;65.98;100495.81;1546053;88;21392;-82
2023/06/21 07:01:19;;;;;;;13.65;6.70;;;;;;;26.99;65.00;100498.42;1405828;88;21606;-82
2023/06/21 07:03:45;;;;;;;10.30;7.25;;;;;;;27.03;63.25;100496.55;1405067;88;21355;-82
2023/06/21 07:06:12;;;;;;;10.82;7.17;;;;;;;26.97;60.01;100504.64;1422616;88;21499;-82
2023/06/21 07:08:42;;;;;;;11.33;7.70;;;;;;;27.05;62.35;100513.42;1402407;88;21356;-82
2023/06/21 07:11:07;;;;;;;7.35;6.65;;;;;;;27.10;62.54;100512.09;1399967;88;21377;-82
2023/06/21 07:13:33;;;;;;;13.45;7.55;;;;;;;27.21;62.82;100509.27;1402071;88;22234;-83
2023/06/21 07:15:59;;;;;;;11.63;7.75;;;;;;;27.26;60.98;100507.15;1389492;89;21436;-82
2023/06/21 07:18:26;;;;;;;13.70;7.03;;;;;;;27.38;61.57;100515.95;1537168;88;21540;-82
2023/06/21 07:20:53;;;;;;;8.63;7.00;;;;;;;27.46;61.38;100516.03;1401949;88;21466;-82
2023/06/21 07:23:19;;;;;;;10.03;7.60;;;;;;;27.49;60.46;100517.42;1401416;88;22311;-82
2023/06/21 07:25:45;;;;;;;10.78;6.83;;;;;;;27.61;60.97;100513.99;1373431;91;21377;-82
2023/06/21 07:28:11;;;;;;;14.30;7.83;;;;;;;27.76;60.91;100509.22;1540701;88;21496;-82
2023/06/21 07:30:38;;;;;;;9.08;7.30;;;;;;;27.83;60.38;100505.24;1401972;88;21370;-82
2023/06/21 07:33:08;;;;;;;11.93;7.37;;;;;;;27.88;60.23;100503.92;1402274;88;21408;-81
2023/06/21 07:35:34;;;;;;;;;;;;;;;27.93;59.47;100501.77;1406525;88;21377;-83
2023/06/21 07:38:00;;;;;;;12.82;7.33;;;;;;;28.02;60.07;100503.45;1398701;88;20244;-82
2023/06/21 07:40:27;;;;;;;10.40;8.30;;;;;;;28.09;60.03;100506.78;1401794;88;21510;-83
2023/06/21 07:42:53;;;;;;;7.67;6.72;;;;;;;28.15;59.67;100505.73;1401937;88;21437;-82
2023/06/21 07:45:20;;;;;;;12.37;7.30;;;;;;;28.25;59.44;100508.50;1388664;89;21377;-82
2023/06/21 07:47:46;;;;;;;13.10;7.15;;;;;;;28.35;59.01;100509.94;1540148;88;22177;-82
2023/06/21 07:50:12;;;;;;;13.03;6.95;;;;;;;28.40;57.67;100508.31;1402107;88;21570;-83
2023/06/21 07:52:38;;;;;;;6.83;6.20;;;;;;;28.46;57.10;100511.39;1402149;88;21392;-82
2023/06/21 07:55:10;;;;;;;17.05;6.80;;;;;;;28.46;53.52;100511.39;1408889;88;21437;-81
2023/06/21 07:57:34;;;;;;;14.98;6.67;;;;;;;28.49;55.26;100508.14;1561930;88;21356;-83
2023/06/21 08:00:08;;;;;;;9.50;6.60;;;;;;;28.56;54.82;100511.42;1402109;88;22378;-82
2023/06/21 08:02:29;;;;;;;105.95;12.88;;;;;;;28.59;54.24;100514.98;1399198;88;22394;-82
2023/06/21 08:04:57;;;;;;;14.68;6.58;;;;;;;28.64;54.04;100512.83;1388820;89;21460;-83
2023/06/21 08:07:23;;;;;;;8.43;6.72;;;;;;;28.70;54.48;100518.02;1407759;88;21385;-83
2023/06/21 08:09:50;;;;;;;13.20;7.53;;;;;;;28.81;55.21;100512.63;1405319;88;21319;-83
2023/06/21 08:12:17;;;;;;;12.70;6.80;;;;;;;28.90;55.40;100515.92;1405653;88;21530;-84
2023/06/21 08:14:44;;;;;;;10.40;6.83;;;;;;;28.98;55.20;100514.05;1411653;88;21443;-83
2023/06/21 08:17:10;;;;;;;12.82;7.03;;;;;;;29.06;55.40;100507.30;1405757;88;22184;-83
2023/06/21 08:19:37;;;;;;;8.45;5.92;;;;;;;29.17;55.14;100511.66;1405643;88;22237;-83
2023/06/21 08:22:03;;;;;;;12.73;6.70;;;;;;;29.20;53.91;100507.06;1405740;88;21385;-83
2023/06/21 08:24:30;;;;;;;13.13;6.53;;;;;;;29.26;53.59;100507.05;1411003;88;22228;-83
2023/06/21 08:26:56;;;;;;;11.90;6.42;;;;;;;29.24;53.16;100509.50;1546363;88;21385;-83
2023/06/21 08:29:22;;;;;;;8.95;6.30;;;;;;;29.30;53.33;100510.34;1405622;88;21422;-82
2023/06/21 08:31:49;;;;;;;9.00;6.25;;;;;;;29.39;52.35;100518.25;1405625;88;21355;-81
2023/06/21 08:34:16;;;;;;;13.50;6.53;;;;;;;29.46;47.40;100509.80;1412097;88;21362;-84
2023/06/21 08:36:42;;;;;;;8.25;6.72;;;;;;;29.57;46.96;100505.98;1568282;88;22354;-83
2023/06/21 08:39:09;;;;;;;12.82;6.45;;;;;;;29.70;45.50;100513.41;1404899;88;21348;-83
2023/06/21 08:41:37;;;;;;;12.93;6.40;;;;;;;29.73;46.10;100510.95;1405442;88;21385;-83
2023/06/21 08:44:04;;;;;;;9.53;6.87;;;;;;;29.79;46.37;100515.30;1409059;88;22235;-83
2023/06/21 08:46:34;;;;;;;6.72;5.95;;;;;;;29.90;43.51;100507.94;1405684;88;21346;-83
2023/06/21 08:49:16;;;;;;;9.90;6.15;;;;;;;29.99;42.98;100509.56;1401465;88;21355;-83
2023/06/21 08:51:44;;;;;;;11.40;6.00;;;;;;;30.05;42.85;100507.91;1401120;88;22376;-83
2023/06/21 08:54:11;;;;;;;9.35;5.92;;;;;;;30.14;43.05;100506.25;1409615;88;21362;-82
2023/06/21 08:56:55;;;;;;;5.67;5.17;;;;;;;30.24;42.27;100510.08;1405076;88;21415;-83
2023/06/21 08:59:32;;;;;;;19.80;5.90;;;;;;;30.32;41.45;100508.15;1408281;88;21384;-83
2023/06/21 09:02:36;;;;;;;5.62;4.97;;;;;;;30.36;40.17;100513.34;1402033;88;22379;-84
2023/06/21 09:05:10;;;;;;;7.67;4.97;;;;;;;30.39;39.46;100514.70;1561778;88;21606;-83
2023/06/21 09:07:37;;;;;;;9.55;4.62;;;;;;;30.50;39.29;100511.66;1496566;88;21369;-83
2023/06/21 09:10:06;;;;;;;8.40;5.70;;;;;;;30.55;39.21;100510.25;1404933;88;21363;-83
2023/06/21 09:12:34;;;;;;;8.75;5.40;;;;;;;30.52;38.38;100505.91;1402967;88;22206;-83
2023/06/21 09:15:02;;;;;;;5.53;5.03;;;;;;;30.54;38.99;100501.80;1403492;88;21606;-82
2023/06/21 09:17:30;;;;;;;10.10;4.50;;;;;;;30.65;38.79;100509.97;1404519;88;21442;-83
2023/06/21 09:19:57;;;;;;;10.00;5.25;;;;;;;30.63;38.56;100501.23;1403862;88;21462;-83
2023/06/21 09:22:24;;;;;;;5.53;5.03;;;;;;;30.69;38.88;100496.82;1404760;88;21458;-82
2023/06/21 09:24:51;;;;;;;19.70;5.87;;;;;;;30.79;39.05;100498.18;1404150;88;21428;-83
2023/06/21 09:27:18;;;;;;;10.08;5.55;;;;;;;30.87;39.25;100499.48;1404391;88;21341;-83
2023/06/21 09:29:44;;;;;;;5.65;5.08;;;;;;;31.01;39.39;100500.50;1405597;88;21356;-82
2023/06/21 09:32:10;;;;;;;6.20;5.60;;;;;;;31.06;39.11;100495.57;1405578;88;21502;-82
2023/06/21 09:34:37;;;;;;;4.83;4.28;;;;;;;31.07;39.11;100497.75;1405681;88;21489;-82
2023/06/21 09:37:04;;;;;;;10.03;4.87;;;;;;;31.14;39.49;100499.08;1387044;89;21332;-82
2023/06/21 09:39:30;;;;;;;12.88;4.85;;;;;;;31.14;38.32;100499.63;1405027;88;21347;-83
2023/06/21 09:41:57;;;;;;;10.15;5.50;;;;;;;31.06;38.06;100497.49;1405598;88;21406;-82
2023/06/21 09:44:23;;;;;;;11.33;5.90;;;;;;;31.01;37.96;100495.03;1405665;88;21311;-83
2023/06/21 09:46:59;;;;;;;21.90;5.90;;;;;;;31.01;38.07;100496.41;1405554;88;22184;-81
2023/06/21 09:49:27;;;;;;;6.65;5.05;;;;;;;31.06;38.33;100498.86;1565419;88;21503;-83
2023/06/21 09:51:54;;;;;;;8.08;5.12;;;;;;;31.12;38.46;100504.55;1403826;88;21422;-83
2023/06/21 09:54:20;;;;;;;9.13;5.83;;;;;;;31.19;38.43;100503.70;1405765;88;21582;-82
2023/06/21 09:56:47;;;;;;;13.45;5.40;;;;;;;31.19;37.96;100492.77;1405566;88;21407;-82
2023/06/21 09:59:16;;;;;;;6.87;5.83;;;;;;;31.32;39.01;100499.51;1405473;88;21492;-82
2023/06/21 10:01:47;;;;;;;7.95;5.30;;;;;;;31.47;38.88;100502.95;1497479;88;21369;-83
2023/06/21 10:04:16;;;;;;;6.08;5.47;;;;;;;31.63;38.88;100498.75;1387742;89;22258;-83
2023/06/21 10:06:54;;;;;;;5.83;5.33;;;;;;;31.75;38.48;100497.82;1401680;88;21296;-83
2023/06/21 10:09:20;;;;;;;9.43;5.53;;;;;;;31.88;38.43;100494.42;1568327;88;22407;-82
2023/06/21 10:11:50;;;;;;;6.35;4.87;;;;;;;31.95;37.77;100498.77;1394146;88;22365;-82
2023/06/21 10:14:27;;;;;;;9.35;6.05;;;;;;;31.95;37.39;100500.14;1568880;88;21473;-81
2023/06/21 10:16:54;;;;;;;6.62;5.00;;;;;;;31.96;37.65;100497.66;1568260;88;21499;-82
2023/06/21 10:19:25;;;;;;;10.90;5.05;;;;;;;32.03;37.48;100498.96;1567267;88;21377;-82
2023/06/21 10:22:20;;;;;;;10.20;5.50;;;;;;;32.05;36.78;100500.02;1489433;88;21442;-82
2023/06/21 10:24:54;;;;;;;10.25;5.15;;;;;;;32.07;36.69;100494.52;1568042;88;21348;-83
2023/06/21 10:27:21;;;;;;;7.75;5.58;;;;;;;32.14;36.49;100496.94;1385744;89;21570;-81
2023/06/21 10:29:56;;;;;;;8.93;5.80;;;;;;;32.19;36.35;100500.16;1404726;88;21363;-83
2023/06/21 10:32:24;;;;;;;4.92;4.42;;;;;;;32.22;36.62;100501.75;1562427;88;21325;-83
2023/06/21 10:35:14;;;;;;;5.17;4.67;;;;;;;32.30;36.97;100501.13;1403213;88;21355;-83
2023/06/21 10:38:01;;;;;;;11.65;5.80;;;;;;;32.43;37.01;100507.03;1568023;88;22162;-81
2023/06/21 10:40:29;;;;;;;7.00;5.53;;;;;;;32.31;36.51;100509.62;1568689;88;21341;-82
2023/06/21 10:43:01;;;;;;;7.83;4.95;;;;;;;32.39;36.93;100508.70;1409821;88;21377;-83
2023/06/21 10:45:27;;;;;;;6.72;5.30;;;;;;;32.52;35.93;100510.78;1402148;88;21444;-82
2023/06/21 10:47:58;;;;;;;11.43;5.58;;;;;;;32.54;36.21;100509.39;1403655;88;21504;-83
2023/06/21 10:50:24;;;;;;;7.97;5.80;;;;;;;32.67;36.47;100505.10;1545490;88;22273;-84
2023/06/21 10:52:55;;;;;;;8.70;5.17;;;;;;;32.83;36.34;100508.47;1403861;88;22184;-82
2023/06/21 10:55:24;;;;;;;8.73;4.83;;;;;;;32.83;36.05;100506.27;1404079;88;21517;-83
2023/06/21 10:57:53;;;;;;;;;;;;;;;32.70;36.32;100511.36;1387054;89;21348;-84
2023/06/21 11:00:24;;;;;;;6.93;5.33;;;;;;;32.59;36.16;100511.23;1403615;88;20826;-84
2023/06/21 11:02:51;;;;;;;7.62;5.00;;;;;;;32.61;36.56;100507.66;1385492;90;21274;-83
2023/06/21 11:05:26;;;;;;;6.72;5.87;;;;;;;32.57;36.21;100498.37;1404341;88;21311;-81
2023/06/21 11:08:05;;;;;;;9.93;4.92;;;;;;;32.64;36.50;100499.41;1532001;88;21355;-83
2023/06/21 11:10:47;;;;;;;5.42;4.92;;;;;;;32.66;36.39;100503.48;1561956;88;22088;-82
2023/06/21 11:13:14;;;;;;;7.80;4.53;;;;;;;32.75;36.05;100497.61;1566668;88;22162;-82
2023/06/21 11:19:10;;;;;;;10.85;4.28;;;;;;;32.87;35.50;100492.25;1567949;88;21200;-81
2023/06/21 11:21:49;;;;;;;9.10;5.00;;;;;;;32.81;34.94;100499.16;1484322;89;22146;-81
2023/06/21 11:24:17;;;;;;;15.57;5.20;;;;;;;32.67;34.97;100491.97;1568100;88;21224;-83